sensor_id;sensor_type;location;lat;lon;timestamp;P1;durP1;ratioP1;P2;durP2;ratioP2
40162;SDS011;25881;47.462;19.304;2022-07-10T00:01:47;1.10;;;1.00;;
40162;SDS011;25881;47.462;19.304;2022-07-10T00:04:12;1.47;;;0.97;;
40162;SDS011;25881;47.462;19.304;2022-07-10T00:06:37;1.73;;;1.10;;
40162;SDS011;25881;47.462;19.304;2022-07-10T00:09:06;3.17;;;1.27;;
40162;SDS011;25881;47.462;19.304;2022-07-10T00:11:31;2.23;;;1.03;;
40162;SDS011;25881;47.462;19.304;2022-07-10T00:13:56;2.73;;;1.30;;
40162;SDS011;25881;47.462;19.304;2022-07-10T00:16:21;2.73;;;1.10;;
40162;SDS011;25881;47.462;19.304;2022-07-10T00:18:47;3.10;;;1.23;;
40162;SDS011;25881;47.462;19.304;2022-07-10T00:21:12;5.83;;;1.60;;
40162;SDS011;25881;47.462;19.304;2022-07-10T00:23:37;2.93;;;1.10;;
40162;SDS011;25881;47.462;19.304;2022-07-10T00:26:02;1.83;;;1.10;;
40162;SDS011;25881;47.462;19.304;2022-07-10T00:28:28;1.20;;;1.08;;
40162;SDS011;25881;47.462;19.304;2022-07-10T00:30:53;1.83;;;1.20;;
40162;SDS011;25881;47.462;19.304;2022-07-10T00:33:18;3.93;;;1.20;;
40162;SDS011;25881;47.462;19.304;2022-07-10T00:35:44;1.90;;;0.90;;
40162;SDS011;25881;47.462;19.304;2022-07-10T00:38:09;2.80;;;1.00;;
40162;SDS011;25881;47.462;19.304;2022-07-10T00:40:35;2.00;;;1.10;;
40162;SDS011;25881;47.462;19.304;2022-07-10T00:43:00;1.30;;;1.20;;
40162;SDS011;25881;47.462;19.304;2022-07-10T00:45:25;2.30;;;1.33;;
40162;SDS011;25881;47.462;19.304;2022-07-10T00:47:50;2.70;;;1.20;;
40162;SDS011;25881;47.462;19.304;2022-07-10T00:50:16;1.00;;;0.90;;
40162;SDS011;25881;47.462;19.304;2022-07-10T00:52:41;1.80;;;1.20;;
40162;SDS011;25881;47.462;19.304;2022-07-10T00:55:06;2.00;;;1.07;;
40162;SDS011;25881;47.462;19.304;2022-07-10T00:57:33;1.95;;;1.20;;
40162;SDS011;25881;47.462;19.304;2022-07-10T00:59:58;2.45;;;1.20;;
40162;SDS011;25881;47.462;19.304;2022-07-10T01:02:24;1.15;;;1.00;;
40162;SDS011;25881;47.462;19.304;2022-07-10T01:04:49;2.90;;;1.30;;
40162;SDS011;25881;47.462;19.304;2022-07-10T01:07:14;4.45;;;1.17;;
40162;SDS011;25881;47.462;19.304;2022-07-10T01:09:41;2.60;;;1.25;;
40162;SDS011;25881;47.462;19.304;2022-07-10T01:12:06;2.45;;;1.20;;
40162;SDS011;25881;47.462;19.304;2022-07-10T01:14:31;2.28;;;1.17;;
40162;SDS011;25881;47.462;19.304;2022-07-10T01:16:57;1.60;;;1.30;;
40162;SDS011;25881;47.462;19.304;2022-07-10T01:19:22;2.20;;;1.27;;
40162;SDS011;25881;47.462;19.304;2022-07-10T01:21:48;3.20;;;1.53;;
40162;SDS011;25881;47.462;19.304;2022-07-10T01:24:13;2.73;;;1.20;;
40162;SDS011;25881;47.462;19.304;2022-07-10T01:26:38;2.58;;;1.20;;
40162;SDS011;25881;47.462;19.304;2022-07-10T01:29:08;3.97;;;1.30;;
40162;SDS011;25881;47.462;19.304;2022-07-10T01:31:33;3.00;;;1.25;;
40162;SDS011;25881;47.462;19.304;2022-07-10T01:33:59;1.83;;;1.20;;
40162;SDS011;25881;47.462;19.304;2022-07-10T01:36:24;1.90;;;1.40;;
40162;SDS011;25881;47.462;19.304;2022-07-10T01:38:52;1.33;;;1.17;;
40162;SDS011;25881;47.462;19.304;2022-07-10T01:41:18;4.43;;;1.35;;
40162;SDS011;25881;47.462;19.304;2022-07-10T01:43:43;1.67;;;1.30;;
40162;SDS011;25881;47.462;19.304;2022-07-10T01:46:10;2.15;;;1.10;;
40162;SDS011;25881;47.462;19.304;2022-07-10T01:48:36;2.13;;;1.20;;
40162;SDS011;25881;47.462;19.304;2022-07-10T01:51:01;1.65;;;1.30;;
40162;SDS011;25881;47.462;19.304;2022-07-10T01:53:26;1.77;;;1.20;;
40162;SDS011;25881;47.462;19.304;2022-07-10T01:55:52;1.50;;;1.40;;
40162;SDS011;25881;47.462;19.304;2022-07-10T01:58:17;4.10;;;1.40;;
40162;SDS011;25881;47.462;19.304;2022-07-10T02:00:42;3.60;;;1.40;;
40162;SDS011;25881;47.462;19.304;2022-07-10T02:03:10;2.05;;;1.40;;
40162;SDS011;25881;47.462;19.304;2022-07-10T02:05:53;2.42;;;1.20;;
40162;SDS011;25881;47.462;19.304;2022-07-10T02:08:18;1.27;;;1.17;;
40162;SDS011;25881;47.462;19.304;2022-07-10T02:10:44;2.70;;;1.20;;
40162;SDS011;25881;47.462;19.304;2022-07-10T02:13:10;4.15;;;1.67;;
40162;SDS011;25881;47.462;19.304;2022-07-10T02:15:35;3.07;;;1.20;;
40162;SDS011;25881;47.462;19.304;2022-07-10T02:18:00;4.27;;;1.40;;
40162;SDS011;25881;47.462;19.304;2022-07-10T02:20:25;1.67;;;1.20;;
40162;SDS011;25881;47.462;19.304;2022-07-10T02:22:51;2.30;;;1.10;;
40162;SDS011;25881;47.462;19.304;2022-07-10T02:25:16;1.53;;;1.20;;
40162;SDS011;25881;47.462;19.304;2022-07-10T02:27:41;4.00;;;1.33;;
40162;SDS011;25881;47.462;19.304;2022-07-10T02:30:06;1.30;;;1.10;;
40162;SDS011;25881;47.462;19.304;2022-07-10T02:32:32;1.38;;;1.27;;
40162;SDS011;25881;47.462;19.304;2022-07-10T02:34:57;5.03;;;1.50;;
40162;SDS011;25881;47.462;19.304;2022-07-10T02:37:22;3.37;;;1.43;;
40162;SDS011;25881;47.462;19.304;2022-07-10T02:39:48;2.75;;;1.42;;
40162;SDS011;25881;47.462;19.304;2022-07-10T02:42:13;2.60;;;1.27;;
40162;SDS011;25881;47.462;19.304;2022-07-10T02:44:38;1.83;;;1.00;;
40162;SDS011;25881;47.462;19.304;2022-07-10T02:47:03;2.67;;;1.30;;
40162;SDS011;25881;47.462;19.304;2022-07-10T02:49:28;1.67;;;1.33;;
40162;SDS011;25881;47.462;19.304;2022-07-10T02:51:54;2.35;;;1.70;;
40162;SDS011;25881;47.462;19.304;2022-07-10T02:54:19;3.40;;;1.37;;
40162;SDS011;25881;47.462;19.304;2022-07-10T02:56:44;2.90;;;1.83;;
40162;SDS011;25881;47.462;19.304;2022-07-10T02:59:10;2.13;;;1.50;;
40162;SDS011;25881;47.462;19.304;2022-07-10T03:01:35;2.13;;;1.40;;
40162;SDS011;25881;47.462;19.304;2022-07-10T03:04:00;2.10;;;1.27;;
40162;SDS011;25881;47.462;19.304;2022-07-10T03:06:26;2.25;;;1.25;;
40162;SDS011;25881;47.462;19.304;2022-07-10T03:08:51;1.50;;;1.27;;
40162;SDS011;25881;47.462;19.304;2022-07-10T03:11:16;1.77;;;1.43;;
40162;SDS011;25881;47.462;19.304;2022-07-10T03:13:42;2.60;;;1.57;;
40162;SDS011;25881;47.462;19.304;2022-07-10T03:16:07;1.87;;;1.30;;
40162;SDS011;25881;47.462;19.304;2022-07-10T03:18:32;2.23;;;1.77;;
40162;SDS011;25881;47.462;19.304;2022-07-10T03:20:57;2.23;;;1.40;;
40162;SDS011;25881;47.462;19.304;2022-07-10T03:23:23;2.27;;;1.67;;
40162;SDS011;25881;47.462;19.304;2022-07-10T03:25:48;3.47;;;1.70;;
40162;SDS011;25881;47.462;19.304;2022-07-10T03:28:13;2.60;;;1.90;;
40162;SDS011;25881;47.462;19.304;2022-07-10T03:30:38;4.47;;;1.90;;
40162;SDS011;25881;47.462;19.304;2022-07-10T03:33:03;2.37;;;1.77;;
40162;SDS011;25881;47.462;19.304;2022-07-10T03:35:29;3.80;;;1.90;;
40162;SDS011;25881;47.462;19.304;2022-07-10T03:37:56;2.80;;;1.83;;
40162;SDS011;25881;47.462;19.304;2022-07-10T03:40:22;2.42;;;1.80;;
40162;SDS011;25881;47.462;19.304;2022-07-10T03:42:47;2.35;;;1.70;;
40162;SDS011;25881;47.462;19.304;2022-07-10T03:45:12;2.60;;;1.70;;
40162;SDS011;25881;47.462;19.304;2022-07-10T03:47:37;5.03;;;1.97;;
40162;SDS011;25881;47.462;19.304;2022-07-10T03:50:03;2.87;;;1.60;;
40162;SDS011;25881;47.462;19.304;2022-07-10T03:52:29;2.03;;;1.83;;
40162;SDS011;25881;47.462;19.304;2022-07-10T03:54:54;3.23;;;1.70;;
40162;SDS011;25881;47.462;19.304;2022-07-10T03:57:19;4.95;;;1.70;;
40162;SDS011;25881;47.462;19.304;2022-07-10T04:00:03;5.30;;;1.63;;
40162;SDS011;25881;47.462;19.304;2022-07-10T04:02:29;2.33;;;1.70;;
40162;SDS011;25881;47.462;19.304;2022-07-10T04:04:54;2.40;;;1.77;;
40162;SDS011;25881;47.462;19.304;2022-07-10T04:07:20;1.90;;;1.70;;
40162;SDS011;25881;47.462;19.304;2022-07-10T04:09:45;3.80;;;1.70;;
40162;SDS011;25881;47.462;19.304;2022-07-10T04:12:10;2.67;;;1.90;;
40162;SDS011;25881;47.462;19.304;2022-07-10T04:14:36;3.27;;;2.13;;
40162;SDS011;25881;47.462;19.304;2022-07-10T04:17:01;1.75;;;1.65;;
40162;SDS011;25881;47.462;19.304;2022-07-10T04:19:26;3.13;;;2.00;;
40162;SDS011;25881;47.462;19.304;2022-07-10T04:21:52;2.63;;;2.00;;
40162;SDS011;25881;47.462;19.304;2022-07-10T04:24:17;3.80;;;1.93;;
40162;SDS011;25881;47.462;19.304;2022-07-10T04:26:42;2.67;;;2.00;;
40162;SDS011;25881;47.462;19.304;2022-07-10T04:29:08;2.78;;;1.65;;
40162;SDS011;25881;47.462;19.304;2022-07-10T04:31:33;2.37;;;1.77;;
40162;SDS011;25881;47.462;19.304;2022-07-10T04:33:58;2.90;;;1.75;;
40162;SDS011;25881;47.462;19.304;2022-07-10T04:36:23;2.33;;;2.10;;
40162;SDS011;25881;47.462;19.304;2022-07-10T04:38:49;2.30;;;1.80;;
40162;SDS011;25881;47.462;19.304;2022-07-10T04:41:14;2.13;;;1.90;;
40162;SDS011;25881;47.462;19.304;2022-07-10T04:43:39;2.00;;;1.80;;
40162;SDS011;25881;47.462;19.304;2022-07-10T04:46:05;2.50;;;1.60;;
40162;SDS011;25881;47.462;19.304;2022-07-10T04:48:31;2.53;;;1.77;;
40162;SDS011;25881;47.462;19.304;2022-07-10T04:50:57;2.77;;;1.80;;
40162;SDS011;25881;47.462;19.304;2022-07-10T04:53:22;2.95;;;1.60;;
40162;SDS011;25881;47.462;19.304;2022-07-10T04:55:48;2.20;;;1.90;;
40162;SDS011;25881;47.462;19.304;2022-07-10T04:58:13;3.57;;;2.00;;
40162;SDS011;25881;47.462;19.304;2022-07-10T05:00:39;3.90;;;1.95;;
40162;SDS011;25881;47.462;19.304;2022-07-10T05:03:04;3.73;;;1.70;;
40162;SDS011;25881;47.462;19.304;2022-07-10T05:05:29;2.50;;;1.70;;
40162;SDS011;25881;47.462;19.304;2022-07-10T05:07:54;2.03;;;1.67;;
40162;SDS011;25881;47.462;19.304;2022-07-10T05:10:20;2.22;;;1.77;;
40162;SDS011;25881;47.462;19.304;2022-07-10T05:12:45;4.30;;;1.90;;
40162;SDS011;25881;47.462;19.304;2022-07-10T05:15:10;3.63;;;1.73;;
40162;SDS011;25881;47.462;19.304;2022-07-10T05:17:35;2.13;;;1.43;;
40162;SDS011;25881;47.462;19.304;2022-07-10T05:20:01;2.53;;;1.80;;
40162;SDS011;25881;47.462;19.304;2022-07-10T05:22:26;2.50;;;1.80;;
40162;SDS011;25881;47.462;19.304;2022-07-10T05:24:51;1.63;;;1.50;;
40162;SDS011;25881;47.462;19.304;2022-07-10T05:27:17;2.13;;;1.90;;
40162;SDS011;25881;47.462;19.304;2022-07-10T05:29:44;3.45;;;1.80;;
40162;SDS011;25881;47.462;19.304;2022-07-10T05:32:10;3.40;;;1.90;;
40162;SDS011;25881;47.462;19.304;2022-07-10T05:34:35;3.50;;;1.80;;
40162;SDS011;25881;47.462;19.304;2022-07-10T05:37:00;5.93;;;1.90;;
40162;SDS011;25881;47.462;19.304;2022-07-10T05:39:26;4.85;;;1.42;;
40162;SDS011;25881;47.462;19.304;2022-07-10T05:41:51;4.45;;;1.92;;
40162;SDS011;25881;47.462;19.304;2022-07-10T05:44:17;2.53;;;1.77;;
40162;SDS011;25881;47.462;19.304;2022-07-10T05:46:44;2.00;;;1.67;;
40162;SDS011;25881;47.462;19.304;2022-07-10T05:49:10;4.35;;;2.20;;
40162;SDS011;25881;47.462;19.304;2022-07-10T05:51:35;4.28;;;1.92;;
40162;SDS011;25881;47.462;19.304;2022-07-10T05:54:00;4.73;;;1.83;;
40162;SDS011;25881;47.462;19.304;2022-07-10T05:56:25;4.43;;;2.10;;
40162;SDS011;25881;47.462;19.304;2022-07-10T05:58:51;3.05;;;1.90;;
40162;SDS011;25881;47.462;19.304;2022-07-10T06:01:16;5.57;;;2.30;;
40162;SDS011;25881;47.462;19.304;2022-07-10T06:03:41;2.20;;;1.63;;
40162;SDS011;25881;47.462;19.304;2022-07-10T06:06:06;2.53;;;2.20;;
40162;SDS011;25881;47.462;19.304;2022-07-10T06:08:32;2.70;;;1.90;;
40162;SDS011;25881;47.462;19.304;2022-07-10T06:10:57;1.90;;;1.60;;
40162;SDS011;25881;47.462;19.304;2022-07-10T06:13:22;3.03;;;2.33;;
40162;SDS011;25881;47.462;19.304;2022-07-10T06:15:47;5.93;;;2.20;;
40162;SDS011;25881;47.462;19.304;2022-07-10T06:18:12;2.37;;;2.13;;
40162;SDS011;25881;47.462;19.304;2022-07-10T06:20:38;4.17;;;2.20;;
40162;SDS011;25881;47.462;19.304;2022-07-10T06:23:03;3.33;;;1.80;;
40162;SDS011;25881;47.462;19.304;2022-07-10T06:25:28;5.37;;;2.70;;
40162;SDS011;25881;47.462;19.304;2022-07-10T06:27:53;3.87;;;2.57;;
40162;SDS011;25881;47.462;19.304;2022-07-10T06:30:19;3.47;;;2.10;;
40162;SDS011;25881;47.462;19.304;2022-07-10T06:32:44;3.50;;;2.30;;
40162;SDS011;25881;47.462;19.304;2022-07-10T06:35:09;4.13;;;2.27;;
40162;SDS011;25881;47.462;19.304;2022-07-10T06:37:35;5.93;;;2.20;;
40162;SDS011;25881;47.462;19.304;2022-07-10T06:40:00;3.95;;;2.20;;
40162;SDS011;25881;47.462;19.304;2022-07-10T06:42:25;3.77;;;2.63;;
40162;SDS011;25881;47.462;19.304;2022-07-10T06:44:51;4.03;;;2.17;;
40162;SDS011;25881;47.462;19.304;2022-07-10T06:47:16;6.13;;;2.63;;
40162;SDS011;25881;47.462;19.304;2022-07-10T06:50:01;4.38;;;2.33;;
40162;SDS011;25881;47.462;19.304;2022-07-10T06:52:26;4.57;;;2.70;;
40162;SDS011;25881;47.462;19.304;2022-07-10T06:54:52;7.00;;;2.88;;
40162;SDS011;25881;47.462;19.304;2022-07-10T06:57:17;5.55;;;2.53;;
40162;SDS011;25881;47.462;19.304;2022-07-10T06:59:44;3.20;;;2.47;;
40162;SDS011;25881;47.462;19.304;2022-07-10T07:02:09;3.50;;;2.58;;
40162;SDS011;25881;47.462;19.304;2022-07-10T07:04:35;4.00;;;2.43;;
40162;SDS011;25881;47.462;19.304;2022-07-10T07:07:01;2.85;;;2.55;;
40162;SDS011;25881;47.462;19.304;2022-07-10T07:09:27;4.47;;;2.38;;
40162;SDS011;25881;47.462;19.304;2022-07-10T07:11:52;4.47;;;2.90;;
40162;SDS011;25881;47.462;19.304;2022-07-10T07:14:17;4.80;;;2.40;;
40162;SDS011;25881;47.462;19.304;2022-07-10T07:16:42;4.00;;;2.57;;
40162;SDS011;25881;47.462;19.304;2022-07-10T07:19:10;7.70;;;2.85;;
40162;SDS011;25881;47.462;19.304;2022-07-10T07:21:36;3.00;;;2.53;;
40162;SDS011;25881;47.462;19.304;2022-07-10T07:24:20;2.65;;;2.40;;
40162;SDS011;25881;47.462;19.304;2022-07-10T07:26:46;5.03;;;2.42;;
40162;SDS011;25881;47.462;19.304;2022-07-10T07:29:14;13.43;;;2.50;;
40162;SDS011;25881;47.462;19.304;2022-07-10T07:31:40;6.72;;;2.65;;
40162;SDS011;25881;47.462;19.304;2022-07-10T07:34:05;4.13;;;3.08;;
40162;SDS011;25881;47.462;19.304;2022-07-10T07:36:31;3.55;;;2.30;;
40162;SDS011;25881;47.462;19.304;2022-07-10T07:38:56;5.27;;;2.50;;
40162;SDS011;25881;47.462;19.304;2022-07-10T07:41:21;2.90;;;2.20;;
40162;SDS011;25881;47.462;19.304;2022-07-10T07:43:47;4.70;;;2.35;;
40162;SDS011;25881;47.462;19.304;2022-07-10T07:46:13;3.47;;;3.05;;
40162;SDS011;25881;47.462;19.304;2022-07-10T07:48:38;2.40;;;2.20;;
40162;SDS011;25881;47.462;19.304;2022-07-10T07:51:03;5.10;;;2.03;;
40162;SDS011;25881;47.462;19.304;2022-07-10T07:53:28;3.55;;;2.13;;
40162;SDS011;25881;47.462;19.304;2022-07-10T07:55:54;2.73;;;2.13;;
40162;SDS011;25881;47.462;19.304;2022-07-10T07:58:19;2.97;;;2.15;;
40162;SDS011;25881;47.462;19.304;2022-07-10T08:00:45;2.63;;;2.20;;
40162;SDS011;25881;47.462;19.304;2022-07-10T08:03:10;3.30;;;2.30;;
40162;SDS011;25881;47.462;19.304;2022-07-10T08:05:35;4.50;;;1.87;;
40162;SDS011;25881;47.462;19.304;2022-07-10T08:08:00;3.07;;;1.93;;
40162;SDS011;25881;47.462;19.304;2022-07-10T08:10:31;2.92;;;1.73;;
40162;SDS011;25881;47.462;19.304;2022-07-10T08:12:56;4.57;;;1.67;;
40162;SDS011;25881;47.462;19.304;2022-07-10T08:15:22;2.03;;;1.50;;
40162;SDS011;25881;47.462;19.304;2022-07-10T08:17:48;5.13;;;1.70;;
40162;SDS011;25881;47.462;19.304;2022-07-10T08:20:13;1.95;;;1.60;;
40162;SDS011;25881;47.462;19.304;2022-07-10T08:22:39;3.65;;;1.70;;
40162;SDS011;25881;47.462;19.304;2022-07-10T08:25:04;2.55;;;2.30;;
40162;SDS011;25881;47.462;19.304;2022-07-10T08:27:30;2.25;;;1.73;;
40162;SDS011;25881;47.462;19.304;2022-07-10T08:29:55;2.78;;;1.88;;
40162;SDS011;25881;47.462;19.304;2022-07-10T08:32:21;4.57;;;1.93;;
40162;SDS011;25881;47.462;19.304;2022-07-10T08:34:46;5.33;;;2.83;;
40162;SDS011;25881;47.462;19.304;2022-07-10T08:37:13;2.40;;;1.45;;
40162;SDS011;25881;47.462;19.304;2022-07-10T08:39:38;4.57;;;2.40;;
40162;SDS011;25881;47.462;19.304;2022-07-10T08:42:04;2.10;;;1.47;;
40162;SDS011;25881;47.462;19.304;2022-07-10T08:44:30;2.75;;;1.30;;
40162;SDS011;25881;47.462;19.304;2022-07-10T08:46:55;3.65;;;1.30;;
40162;SDS011;25881;47.462;19.304;2022-07-10T08:49:23;2.45;;;1.65;;
40162;SDS011;25881;47.462;19.304;2022-07-10T08:51:53;2.08;;;1.80;;
40162;SDS011;25881;47.462;19.304;2022-07-10T08:54:21;2.38;;;1.67;;
40162;SDS011;25881;47.462;19.304;2022-07-10T08:56:47;2.17;;;1.53;;
40162;SDS011;25881;47.462;19.304;2022-07-10T08:59:12;2.67;;;1.70;;
40162;SDS011;25881;47.462;19.304;2022-07-10T09:01:38;1.83;;;1.52;;
40162;SDS011;25881;47.462;19.304;2022-07-10T09:04:04;2.70;;;1.40;;
40162;SDS011;25881;47.462;19.304;2022-07-10T09:06:29;2.87;;;1.80;;
40162;SDS011;25881;47.462;19.304;2022-07-10T09:09:00;5.45;;;1.55;;
40162;SDS011;25881;47.462;19.304;2022-07-10T09:11:25;3.05;;;1.50;;
40162;SDS011;25881;47.462;19.304;2022-07-10T09:13:54;2.03;;;1.30;;
40162;SDS011;25881;47.462;19.304;2022-07-10T09:16:27;1.40;;;1.00;;
40162;SDS011;25881;47.462;19.304;2022-07-10T09:18:53;1.55;;;1.25;;
40162;SDS011;25881;47.462;19.304;2022-07-10T09:21:18;1.92;;;1.25;;
40162;SDS011;25881;47.462;19.304;2022-07-10T09:23:44;4.28;;;1.88;;
40162;SDS011;25881;47.462;19.304;2022-07-10T09:26:09;2.13;;;1.50;;
40162;SDS011;25881;47.462;19.304;2022-07-10T09:28:34;2.20;;;1.50;;
40162;SDS011;25881;47.462;19.304;2022-07-10T09:30:59;2.97;;;1.30;;
40162;SDS011;25881;47.462;19.304;2022-07-10T09:33:25;1.63;;;1.30;;
40162;SDS011;25881;47.462;19.304;2022-07-10T09:35:57;1.73;;;1.52;;
40162;SDS011;25881;47.462;19.304;2022-07-10T09:41:19;2.58;;;1.00;;
40162;SDS011;25881;47.462;19.304;2022-07-10T09:46:13;2.30;;;1.15;;
40162;SDS011;25881;47.462;19.304;2022-07-10T09:48:38;2.20;;;1.20;;
40162;SDS011;25881;47.462;19.304;2022-07-10T09:51:05;1.95;;;1.10;;
40162;SDS011;25881;47.462;19.304;2022-07-10T09:53:31;2.70;;;1.30;;
40162;SDS011;25881;47.462;19.304;2022-07-10T09:55:57;5.00;;;2.33;;
40162;SDS011;25881;47.462;19.304;2022-07-10T09:58:24;7.32;;;3.08;;
40162;SDS011;25881;47.462;19.304;2022-07-10T10:00:52;1.60;;;1.50;;
40162;SDS011;25881;47.462;19.304;2022-07-10T10:03:18;1.23;;;1.02;;
40162;SDS011;25881;47.462;19.304;2022-07-10T10:05:45;1.83;;;1.30;;
40162;SDS011;25881;47.462;19.304;2022-07-10T10:08:18;6.50;;;3.15;;
40162;SDS011;25881;47.462;19.304;2022-07-10T10:10:47;1.67;;;1.10;;
40162;SDS011;25881;47.462;19.304;2022-07-10T10:13:15;1.67;;;1.10;;
40162;SDS011;25881;47.462;19.304;2022-07-10T10:18:06;3.25;;;1.30;;
40162;SDS011;25881;47.462;19.304;2022-07-10T10:20:34;4.30;;;1.80;;
40162;SDS011;25881;47.462;19.304;2022-07-10T10:23:03;6.93;;;2.85;;
40162;SDS011;25881;47.462;19.304;2022-07-10T10:25:28;2.58;;;1.50;;
40162;SDS011;25881;47.462;19.304;2022-07-10T10:27:56;3.20;;;1.33;;
40162;SDS011;25881;47.462;19.304;2022-07-10T10:30:22;1.90;;;1.20;;
40162;SDS011;25881;47.462;19.304;2022-07-10T10:32:47;2.55;;;1.80;;
40162;SDS011;25881;47.462;19.304;2022-07-10T10:35:40;1.97;;;1.53;;
40162;SDS011;25881;47.462;19.304;2022-07-10T10:37:58;2.53;;;1.63;;
40162;SDS011;25881;47.462;19.304;2022-07-10T10:40:30;3.87;;;1.30;;
40162;SDS011;25881;47.462;19.304;2022-07-10T10:42:56;9.45;;;1.40;;
40162;SDS011;25881;47.462;19.304;2022-07-10T10:50:35;2.05;;;1.30;;
40162;SDS011;25881;47.462;19.304;2022-07-10T10:53:01;1.50;;;1.00;;
40162;SDS011;25881;47.462;19.304;2022-07-10T10:55:27;2.97;;;1.30;;
40162;SDS011;25881;47.462;19.304;2022-07-10T10:57:52;2.20;;;1.10;;
40162;SDS011;25881;47.462;19.304;2022-07-10T11:00:30;1.93;;;1.10;;
40162;SDS011;25881;47.462;19.304;2022-07-10T11:05:39;1.77;;;1.10;;
40162;SDS011;25881;47.462;19.304;2022-07-10T11:08:06;6.15;;;1.35;;
40162;SDS011;25881;47.462;19.304;2022-07-10T11:10:39;3.50;;;1.33;;
40162;SDS011;25881;47.462;19.304;2022-07-10T11:13:24;1.85;;;1.42;;
40162;SDS011;25881;47.462;19.304;2022-07-10T11:15:52;2.83;;;1.15;;
40162;SDS011;25881;47.462;19.304;2022-07-10T11:18:18;3.58;;;1.02;;
40162;SDS011;25881;47.462;19.304;2022-07-10T11:20:48;1.38;;;1.10;;
40162;SDS011;25881;47.462;19.304;2022-07-10T11:26:05;5.60;;;1.52;;
40162;SDS011;25881;47.462;19.304;2022-07-10T11:31:10;2.58;;;1.10;;
40162;SDS011;25881;47.462;19.304;2022-07-10T11:33:39;5.03;;;1.20;;
40162;SDS011;25881;47.462;19.304;2022-07-10T11:36:09;1.90;;;1.10;;
40162;SDS011;25881;47.462;19.304;2022-07-10T11:38:34;2.35;;;0.73;;
40162;SDS011;25881;47.462;19.304;2022-07-10T11:41:00;1.50;;;0.93;;
40162;SDS011;25881;47.462;19.304;2022-07-10T11:43:25;10.52;;;1.15;;
40162;SDS011;25881;47.462;19.304;2022-07-10T11:45:50;1.33;;;0.93;;
40162;SDS011;25881;47.462;19.304;2022-07-10T11:48:17;2.10;;;0.90;;
40162;SDS011;25881;47.462;19.304;2022-07-10T11:50:43;3.08;;;1.00;;
40162;SDS011;25881;47.462;19.304;2022-07-10T11:53:08;5.35;;;1.23;;
40162;SDS011;25881;47.462;19.304;2022-07-10T11:55:33;4.60;;;1.17;;
40162;SDS011;25881;47.462;19.304;2022-07-10T12:00:27;5.53;;;1.05;;
40162;SDS011;25881;47.462;19.304;2022-07-10T12:02:54;3.70;;;1.00;;
40162;SDS011;25881;47.462;19.304;2022-07-10T12:05:33;4.80;;;1.20;;
40162;SDS011;25881;47.462;19.304;2022-07-10T12:07:59;4.97;;;1.40;;
40162;SDS011;25881;47.462;19.304;2022-07-10T12:10:30;5.70;;;1.30;;
40162;SDS011;25881;47.462;19.304;2022-07-10T12:13:06;16.77;;;2.00;;
40162;SDS011;25881;47.462;19.304;2022-07-10T12:15:33;7.55;;;1.50;;
40162;SDS011;25881;47.462;19.304;2022-07-10T12:17:58;8.55;;;1.52;;
40162;SDS011;25881;47.462;19.304;2022-07-10T12:20:23;20.23;;;2.07;;
40162;SDS011;25881;47.462;19.304;2022-07-10T12:22:49;10.95;;;1.08;;
40162;SDS011;25881;47.462;19.304;2022-07-10T12:25:14;7.63;;;1.00;;
40162;SDS011;25881;47.462;19.304;2022-07-10T12:27:39;8.77;;;1.47;;
40162;SDS011;25881;47.462;19.304;2022-07-10T12:30:05;6.72;;;1.50;;
40162;SDS011;25881;47.462;19.304;2022-07-10T12:32:30;6.60;;;1.00;;
40162;SDS011;25881;47.462;19.304;2022-07-10T12:34:58;6.60;;;1.53;;
40162;SDS011;25881;47.462;19.304;2022-07-10T12:37:23;4.97;;;1.00;;
40162;SDS011;25881;47.462;19.304;2022-07-10T12:39:54;11.73;;;1.10;;
40162;SDS011;25881;47.462;19.304;2022-07-10T12:44:50;8.60;;;1.15;;
40162;SDS011;25881;47.462;19.304;2022-07-10T12:47:16;7.47;;;1.00;;
40162;SDS011;25881;47.462;19.304;2022-07-10T12:50:01;4.28;;;0.80;;
40162;SDS011;25881;47.462;19.304;2022-07-10T12:55:05;3.60;;;0.98;;
40162;SDS011;25881;47.462;19.304;2022-07-10T12:57:31;5.72;;;1.13;;
40162;SDS011;25881;47.462;19.304;2022-07-10T13:00:02;2.73;;;1.00;;
40162;SDS011;25881;47.462;19.304;2022-07-10T13:02:29;4.97;;;0.80;;
40162;SDS011;25881;47.462;19.304;2022-07-10T13:04:55;1.02;;;0.90;;
40162;SDS011;25881;47.462;19.304;2022-07-10T13:07:28;4.40;;;0.90;;
40162;SDS011;25881;47.462;19.304;2022-07-10T13:09:53;5.15;;;1.42;;
40162;SDS011;25881;47.462;19.304;2022-07-10T13:12:18;2.77;;;1.07;;
40162;SDS011;25881;47.462;19.304;2022-07-10T13:14:44;3.30;;;1.10;;
40162;SDS011;25881;47.462;19.304;2022-07-10T13:17:09;3.97;;;1.10;;
40162;SDS011;25881;47.462;19.304;2022-07-10T13:19:34;4.37;;;1.00;;
40162;SDS011;25881;47.462;19.304;2022-07-10T13:22:00;1.90;;;0.95;;
40162;SDS011;25881;47.462;19.304;2022-07-10T13:24:25;6.53;;;1.07;;
40162;SDS011;25881;47.462;19.304;2022-07-10T13:26:53;3.88;;;0.95;;
40162;SDS011;25881;47.462;19.304;2022-07-10T13:29:20;1.55;;;1.00;;
40162;SDS011;25881;47.462;19.304;2022-07-10T13:31:45;3.17;;;1.00;;
40162;SDS011;25881;47.462;19.304;2022-07-10T13:34:10;3.93;;;1.23;;
40162;SDS011;25881;47.462;19.304;2022-07-10T13:36:36;2.40;;;1.13;;
40162;SDS011;25881;47.462;19.304;2022-07-10T13:39:01;9.57;;;1.30;;
40162;SDS011;25881;47.462;19.304;2022-07-10T13:41:27;1.75;;;0.98;;
40162;SDS011;25881;47.462;19.304;2022-07-10T13:43:52;4.23;;;1.00;;
40162;SDS011;25881;47.462;19.304;2022-07-10T13:46:17;9.07;;;1.60;;
40162;SDS011;25881;47.462;19.304;2022-07-10T13:48:43;9.47;;;1.33;;
40162;SDS011;25881;47.462;19.304;2022-07-10T13:51:09;5.50;;;1.20;;
40162;SDS011;25881;47.462;19.304;2022-07-10T13:53:34;9.93;;;1.20;;
40162;SDS011;25881;47.462;19.304;2022-07-10T13:55:59;15.43;;;1.73;;
40162;SDS011;25881;47.462;19.304;2022-07-10T13:58:25;3.33;;;1.10;;
40162;SDS011;25881;47.462;19.304;2022-07-10T14:00:50;5.65;;;1.23;;
40162;SDS011;25881;47.462;19.304;2022-07-10T14:03:15;3.03;;;1.40;;
40162;SDS011;25881;47.462;19.304;2022-07-10T14:05:41;3.20;;;1.30;;
40162;SDS011;25881;47.462;19.304;2022-07-10T14:08:07;4.18;;;1.40;;
40162;SDS011;25881;47.462;19.304;2022-07-10T14:10:32;6.97;;;0.90;;
40162;SDS011;25881;47.462;19.304;2022-07-10T14:12:57;5.50;;;1.10;;
40162;SDS011;25881;47.462;19.304;2022-07-10T14:15:22;4.45;;;1.05;;
40162;SDS011;25881;47.462;19.304;2022-07-10T14:17:48;3.93;;;1.20;;
40162;SDS011;25881;47.462;19.304;2022-07-10T14:20:13;8.55;;;1.50;;
40162;SDS011;25881;47.462;19.304;2022-07-10T14:22:39;7.38;;;1.33;;
40162;SDS011;25881;47.462;19.304;2022-07-10T14:25:05;2.33;;;1.38;;
40162;SDS011;25881;47.462;19.304;2022-07-10T14:27:30;4.68;;;1.58;;
40162;SDS011;25881;47.462;19.304;2022-07-10T14:29:57;3.78;;;1.00;;
40162;SDS011;25881;47.462;19.304;2022-07-10T14:32:22;4.78;;;1.10;;
40162;SDS011;25881;47.462;19.304;2022-07-10T14:34:47;3.37;;;1.10;;
40162;SDS011;25881;47.462;19.304;2022-07-10T14:37:12;8.60;;;1.53;;
40162;SDS011;25881;47.462;19.304;2022-07-10T14:39:38;4.07;;;1.23;;
40162;SDS011;25881;47.462;19.304;2022-07-10T14:42:03;4.15;;;1.40;;
40162;SDS011;25881;47.462;19.304;2022-07-10T14:44:30;4.15;;;1.20;;
40162;SDS011;25881;47.462;19.304;2022-07-10T14:46:55;2.67;;;1.20;;
40162;SDS011;25881;47.462;19.304;2022-07-10T14:49:20;2.20;;;0.83;;
40162;SDS011;25881;47.462;19.304;2022-07-10T14:51:45;2.10;;;1.20;;
40162;SDS011;25881;47.462;19.304;2022-07-10T14:54:11;3.00;;;1.00;;
40162;SDS011;25881;47.462;19.304;2022-07-10T14:56:36;5.40;;;1.25;;